• Join FlightAware (Why Join?)
  • Login
  • US Flag 
02:42PM EDT


 

Airport Tracker/Info


-or-


 

Live Flight TrackerFlight Track Log ✈ N143DE ✈ 21-Jan-2014 ✈ KRIC - KRYY

Flight Track Log - Related Links

Times and Time Zones

All times are in EST time to prevent confusion due to time zone crossing. See the N143DE flight status page for this flight to view local times or setup timezone preferences in your user account.

Time Position Orientation Groundspeed Altitude Reporting Facility
EST Latitude Longitude Course Direction KTS MPH feet Rate Location/Type
09:24AM 37.5167 -77.3333 266° West 160 184 1,500  Level Potomac TRACON
09:26AM 37.5106 -77.4375 266° West 202 232 4,100 1,980 Climbing Washington Center
09:27AM 37.4972 -77.4897 252° West 182 209 6,500 1,860 Climbing Washington Center
09:28AM 37.4775 -77.5467 246° West 187 215 7,900 1,260 Climbing Washington Center
09:29AM 37.4575 -77.6117 249° West 187 215 9,100 1,140 Climbing Washington Center
09:30AM 37.4397 -77.6739 250° West 192 221 10,200 960 Climbing Washington Center
09:31AM 37.4136 -77.7386 243° Southwest 192 221 11,100 900 Climbing Washington Center
09:32AM 37.3875 -77.7981 241° Southwest 197 227 12,100 960 Climbing Washington Center
09:33AM 37.3656 -77.8600 246° West 197 227 13,100 900 Climbing Washington Center
09:34AM 37.3436 -77.9194 245° Southwest 197 227 14,000 840 Climbing Washington Center
09:35AM 37.3278 -77.9789 251° West 197 227 14,800 780 Climbing Washington Center
09:36AM 37.3283 -78.0469 271° West 191 220 15,600 720 Climbing Washington Center
09:37AM 37.3231 -78.1119 264° West 191 220 16,300 660 Climbing Washington Center
09:38AM 37.3194 -78.1825 266° West 198 228 17,000 600 Climbing Washington Center
09:39AM 37.3158 -78.2475 266° West 198 228 17,600 720 Climbing Washington Center
09:40AM 37.3100 -78.3231 264° West 198 228 18,500 780 Climbing Washington Center
09:41AM 37.3083 -78.3911 268° West 198 228 19,200 660 Climbing Washington Center
09:42AM 37.3047 -78.4589 266° West 198 228 19,900 720 Climbing Washington Center
09:43AM 37.3011 -78.5214 266° West 193 222 20,700 720 Climbing Washington Center
09:44AM 37.2975 -78.5811 266° West 193 222 21,400 540 Climbing Washington Center
09:45AM 37.2919 -78.6358 263° West 180 207 21,800 480 Climbing Washington Center
09:46AM 37.2906 -78.6958 268° West 175 201 22,400 540 Climbing Washington Center
09:47AM 37.2847 -78.7556 263° West 175 201 22,900 420 Climbing Washington Center
09:48AM 37.2811 -78.8128 265° West 175 201 23,300 360 Climbing Washington Center
09:49AM 37.2792 -78.8833 268° West 175 201 23,700 360 Climbing Washington Center
09:50AM 37.2733 -78.9406 263° West 175 201 24,100 420 Climbing Washington Center
09:51AM 37.2717 -79.0031 268° West 175 201 24,600 420 Climbing Washington Center
09:52AM 37.2681 -79.0603 265° West 175 201 25,000 420 Climbing Washington Center
09:53AM 37.2642 -79.1175 265° West 175 201 25,500 420 Climbing Washington Center
09:54AM 37.2606 -79.1669 265° West 175 201 25,900 240 Climbing Washington Center
09:55AM 37.2569 -79.2242 265° West 175 201 26,000  Climbing Washington Center
09:56AM 37.2303 -79.2725 235° Southwest 170 196 26,000  Level Washington Center
09:57AM 37.1997 -79.3206 231° Southwest 176 203 26,000  Level Washington Center
09:58AM 37.1708 -79.3714 235° Southwest 182 209 26,000  Level Washington Center
09:59AM 37.1461 -79.4300 242° Southwest 182 209 26,000  Level Washington Center
10:00AM 37.1419 -79.4922 265° West 177 204 26,000  Level Washington Center
10:01AM 37.1358 -79.5544 263° West 182 209 26,000  Level Washington Center
10:02AM 37.1317 -79.6169 265° West 182 209 26,000  Level Washington Center
10:03AM 37.1028 -79.6647 233° Southwest 177 204 26,000  Level Washington Center
10:04AM 37.0739 -79.7181 236° Southwest 177 204 26,000  Level Washington Center
10:05AM 37.0494 -79.7608 234° Southwest 182 209 26,000  Level Washington Center
10:06AM 37.0206 -79.8139 236° Southwest 182 209 26,000  Level Washington Center
10:07AM 36.9917 -79.8617 233° Southwest 182 209 26,000  Level Washington Center
10:08AM 36.9628 -79.9122 234° Southwest 187 215 26,000  Level Washington Center
10:09AM 36.9317 -79.9650 234° Southwest 187 215 26,000  Level Washington Center
10:11AM 36.8800 -80.0556 235° Southwest 179 206 26,000  Level Atlanta Center
10:12AM 36.8483 -80.1064 232° Southwest 184 212 26,000  Level Atlanta Center
10:13AM 36.8206 -80.1544 234° Southwest 184 212 26,000  Level Atlanta Center
10:14AM 36.7908 -80.2078 235° Southwest 184 212 26,000  Level Atlanta Center
10:15AM 36.7572 -80.2611 232° Southwest 184 212 26,000  Level Atlanta Center
10:16AM 36.7294 -80.3117 236° Southwest 184 212 26,000  Level Atlanta Center
10:17AM 36.6997 -80.3622 234° Southwest 184 212 26,000  Level Atlanta Center
10:18AM 36.6678 -80.4103 230° Southwest 184 212 26,000  Level Atlanta Center
10:19AM 36.6464 -80.4578 241° Southwest 184 212 26,000  Level Atlanta Center
10:20AM 36.6164 -80.5058 232° Southwest 184 212 26,000  Level Atlanta Center
10:21AM 36.5844 -80.5564 232° Southwest 184 212 26,000  Level Atlanta Center
10:22AM 36.5567 -80.6092 237° Southwest 184 212 26,000  Level Atlanta Center
10:23AM 36.5250 -80.6622 233° Southwest 184 212 26,000  Level Atlanta Center
10:24AM 36.4950 -80.7125 233° Southwest 184 212 26,000  Level Atlanta Center
10:25AM 36.4650 -80.7603 232° Southwest 184 212 26,000  Level Atlanta Center
10:26AM 36.4350 -80.8078 232° Southwest 184 212 26,000  Level Atlanta Center
10:27AM 36.4069 -80.8581 235° Southwest 184 212 26,000  Level Atlanta Center
10:28AM 36.3792 -80.9108 237° Southwest 184 212 26,000  Level Atlanta Center
10:29AM 36.3533 -80.9608 237° Southwest 179 206 26,000  Level Atlanta Center
10:30AM 36.3233 -81.0108 233° Southwest 179 206 26,000  Level Atlanta Center
10:31AM 36.2953 -81.0583 234° Southwest 179 206 26,000  Level Atlanta Center
10:32AM 36.2672 -81.1083 235° Southwest 179 206 26,000  Level Atlanta Center
10:33AM 36.2372 -81.1556 232° Southwest 179 206 26,000  Level Atlanta Center
10:34AM 36.2092 -81.2031 234° Southwest 179 206 26,000  Level Atlanta Center
10:35AM 36.1769 -81.2531 231° Southwest 179 206 26,000  Level Atlanta Center
10:36AM 36.1508 -81.3028 237° Southwest 179 206 26,000  Level Atlanta Center
10:37AM 36.1206 -81.3500 232° Southwest 174 200 26,000  Level Atlanta Center
10:38AM 36.0903 -81.3997 233° Southwest 174 200 26,000  Level Atlanta Center
10:39AM 36.0600 -81.4469 232° Southwest 174 200 26,000  Level Atlanta Center
10:40AM 36.0319 -81.4994 237° Southwest 174 200 26,000  Level Atlanta Center
10:41AM 36.0017 -81.5464 231° Southwest 174 200 26,000  Level Atlanta Center
10:42AM 35.9775 -81.5908 236° Southwest 179 206 26,000  Level Atlanta Center
10:43AM 35.9472 -81.6381 232° Southwest 174 200 26,000  Level Atlanta Center
10:44AM 35.9169 -81.6875 233° Southwest 179 206 26,000  Level Atlanta Center
10:45AM 35.8864 -81.7372 233° Southwest 179 206 26,000  Level Atlanta Center
10:46AM 35.8581 -81.7842 233° Southwest 179 206 26,000  Level Atlanta Center
10:47AM 35.8278 -81.8361 234° Southwest 179 206 26,000  Level Atlanta Center
10:48AM 35.7994 -81.8831 233° Southwest 179 206 26,000  Level Atlanta Center
10:49AM 35.7669 -81.9325 231° Southwest 179 206 26,000  Level Atlanta Center
10:50AM 35.7386 -81.9792 233° Southwest 179 206 26,000  Level Atlanta Center
10:51AM 35.7081 -82.0311 234° Southwest 179 206 26,000  Level Atlanta Center
10:52AM 35.6775 -82.0778 231° Southwest 179 206 26,000  Level Atlanta Center
10:53AM 35.6492 -82.1247 233° Southwest 184 212 26,000  Level Atlanta Center
10:54AM 35.6186 -82.1764 234° Southwest 184 212 26,000  Level Atlanta Center
10:55AM 35.5881 -82.2256 233° Southwest 184 212 26,000  Level Atlanta Center
10:56AM 35.5575 -82.2772 234° Southwest 184 212 26,000  Level Atlanta Center
10:57AM 35.5269 -82.3264 233° Southwest 184 212 26,000 -360 Level Atlanta Center
10:58AM 35.4903 -82.3858 233° Southwest 189 217 25,300 -660 Descending Atlanta Center
10:59AM 35.4575 -82.4400 233° Southwest 194 223 24,700 -660 Descending Atlanta Center
11:00AM 35.4206 -82.4969 231° Southwest 207 238 24,000 -360 Descending Atlanta Center
11:01AM 35.3881 -82.5511 234° Southwest 202 232 24,000  Level Atlanta Center
11:02AM 35.3572 -82.5975 231° Southwest 202 232 24,000  Level Atlanta Center
11:02AM 35.3572 -82.5975 231° Southwest 202 232 24,000 -540 Level Atlanta Center
11:03AM 35.3244 -82.6489 232° Southwest 202 232 23,500 -540 Descending Atlanta Center
11:03AM 35.3244 -82.6489 232° Southwest 202 232 23,500 -840 Level Atlanta Center
11:04AM 35.2936 -82.7028 235° Southwest 202 232 22,700 -840 Descending Atlanta Center
11:04AM 35.2936 -82.7028 235° Southwest 202 232 22,700 -840 Level Atlanta Center
11:05AM 35.2567 -82.7619 233° Southwest 202 232 21,900 -840 Descending Atlanta Center
11:05AM 35.2567 -82.7619 233° Southwest 202 232 21,900 -1,140 Level Atlanta Center
11:06AM 35.2197 -82.8183 231° Southwest 208 239 20,800 -1,140 Descending Atlanta Center
11:06AM 35.2197 -82.8183 231° Southwest 208 239 20,800 -900 Level Atlanta Center
11:07AM 35.1850 -82.8747 233° Southwest 214 246 19,900 -900 Descending Atlanta Center
11:07AM 35.1850 -82.8747 233° Southwest 214 246 19,900 -840 Level Atlanta Center
11:08AM 35.1436 -82.9389 232° Southwest 226 260 19,100 -840 Descending Atlanta Center
11:08AM 35.1436 -82.9389 232° Southwest 226 260 19,100 -840 Level Atlanta Center
11:09AM 35.1089 -82.9953 233° Southwest 231 266 18,300 -1,080 Descending Atlanta Center
11:10AM 35.0697 -83.0567 232° Southwest 226 260 17,000 -1,020 Descending Atlanta Center
11:11AM 35.0325 -83.1156 232° Southwest 226 260 16,300 -720 Descending Atlanta Center
11:12AM 34.9953 -83.1767 233° Southwest 226 260 15,600 -780 Descending Atlanta Center
11:13AM 34.9561 -83.2328 230° Southwest 226 260 14,800 -720 Descending Atlanta Center
11:14AM 34.9211 -83.2914 234° Southwest 226 260 14,200 -540 Descending Atlanta Center
11:15AM 34.8858 -83.3450 231° Southwest 226 260 13,800 -420 Descending Atlanta Center
11:16AM 34.8508 -83.4061 235° Southwest 226 260 13,400 -600 Descending Atlanta Center
11:17AM 34.8133 -83.4644 232° Southwest 226 260 12,600 -900 Descending Atlanta Center
11:18AM 34.7783 -83.5153 230° Southwest 214 246 11,700 -840 Descending Atlanta Center
11:19AM 34.7450 -83.5786 237° Southwest 214 246 11,000 -600 Descending Atlanta Center
11:20AM 34.7078 -83.6344 231° Southwest 214 246 10,500 -660 Descending Atlanta Center
11:21AM 34.6744 -83.6903 234° Southwest 214 246 9,700 -600 Descending Atlanta Center
11:22AM 34.6350 -83.7408 227° Southwest 200 230 9,300 -600 Descending Atlanta Center
11:23AM 34.6017 -83.7914 231° Southwest 200 230 8,600 -660 Descending Atlanta Center
11:24AM 34.5622 -83.8522 232° Southwest 215 247 8,000 -300 Descending Atlanta Center
11:25AM 34.5331 -83.9128 240° Southwest 220 253 8,000 -60 Level Atlanta Center
11:26AM 34.5017 -83.9581 230° Southwest 209 241 7,900  Descending Atlanta Center
11:27AM 34.4725 -83.9908 223° Southwest 174 200 8,000  Climbing Atlanta Center
11:28AM 34.4267 -84.0161 204° Southwest 168 193 8,000  Level Atlanta Center
11:29AM 34.3808 -84.0361 200° South 168 193 8,000  Level Atlanta Center
11:30AM 34.3347 -84.0614 204° Southwest 181 208 8,000  Level Atlanta Center
11:31AM 34.2911 -84.0842 203° Southwest 181 208 8,000  Level Atlanta Center
11:32AM 34.2492 -84.1042 202° Southwest 170 196 8,000 -420 Level Atlanta Center
11:33AM 34.2136 -84.1467 225° Southwest 170 196 7,200 -780 Descending Atlanta Center
11:34AM 34.1867 -84.1944 236° Southwest 170 196 6,500 -480 Descending Atlanta Center
11:35AM 34.1572 -84.2269 222° Southwest 170 196 6,300 -780 Descending Atlanta Center
11:36AM 34.1167 -84.3167 241° Southwest 182 209 4,700 -960 Descending Atlanta TRACON
11:37AM 34.0833 -84.3667 231° Southwest 184 212 4,000 -660 Descending Atlanta TRACON
11:38AM 34.0500 -84.4000 220° Southwest 182 209 3,400 -480 Descending Atlanta TRACON
11:39AM 34.0333 -84.4500 248° West 166 191 3,100 -360 Descending Atlanta TRACON
11:40AM 34.0167 -84.4833 239° Southwest 129 148 2,800 -480 Descending Atlanta TRACON
11:41AM 34.0167 -84.5167 270° West 110 127 2,200 -600 Descending Atlanta TRACON
11:42AM 34.0167 -84.5500 270° West 93 107 1,600 -600 Descending Atlanta TRACON
11:44AM 34.0000 -84.5833 248° West  Level FlightAware Approximate
11:51AM 34.0132 -84.5971 248° West  Level Estimated